Main page
METAR-TAF:

METAR-TAF

Airports :

Tehran, Iran

Mehrabad International Airport

latitude: 35-41N, longitude: 051-21E, elevation: 1204 m

Current weather observation

The report was made 36 minutes ago, at 05:30 UTC
Wind 6 kt from the East/Southeast
Temperature 20°C
Humidity 14%
Pressure 1024 hPa
Visibility 10 km or more
no clouds below 1500 m and no cumulonimbus

METAR: OIII 240530Z 11006KT CAVOK 20/M08 Q1024 A3024 NOSIG

Time: 09:36 (06:06 UTC)

Forecast

The report was made 19 hours and 6 minutes ago, at 11:00 UTC
Forecast valid from 23 at 12 UTC to 24 at 18 UTC
Wind 8 kt from the South
Visibility: 7000 m
Becoming
from 23 at 18 UTC to 23 at 20 UTC
Wind 10 kt from the Northwest
Becoming
from 24 at 04 UTC to 24 at 06 UTC
Wind 8 kt from the South

TAF: OIII 231100Z 2312/2418 17004MPS 7000 NSC BECMG 2318/2320 32005MPS BECMG 2404/2406 17004MPS

Weather observations and forecasts of more than 4000 airports (METAR and TAF reports).

The available stations are represented by yellow and red dots on the map.

Hover mouse over dot to see the name of the station.

Then click to see weather observations and forecasts.

To change the map : click on the green buttons with a black cross to zoom in, on the green button with a dash to zoom out, or on the green arrows for adjacent maps.


METAR-TAF: